Time;durP1;ratioP1;P1;durP2;ratioP2;P2;SDS_P1;SDS_P2;PMS_P1;PMS_P2;Temp;Humidity;BMP_temperature;BMP_pressure;BME280_temperature;BME280_humidity;BME280_pressure;Samples;Min_cycle;Max_cycle;Signal;HPM_P1;HPM_P2
2021/04/16 00:00:47;;;;;;;1.48;0.68;;;15.00;58.30;;;;;;4956745;29;20039;-40
2021/04/16 00:03:15;;;;;;;0.50;0.43;;;14.80;58.20;;;;;;4956760;29;20114;-41
2021/04/16 00:05:41;;;;;;;1.17;0.40;;;15.00;58.20;;;;;;4956480;29;20494;-40
2021/04/16 00:08:10;;;;;;;1.58;0.47;;;14.90;58.20;;;;;;4956667;29;20159;-40
2021/04/16 00:10:40;;;;;;;0.57;0.40;;;15.20;58.20;;;;;;4956681;29;20028;-42
2021/04/16 00:13:06;;;;;;;1.02;0.50;;;14.90;58.10;;;;;;4956351;29;20126;-40
2021/04/16 00:15:37;;;;;;;0.80;0.52;;;14.90;58.00;;;;;;4956410;29;20042;-42
2021/04/16 00:18:05;;;;;;;2.70;0.60;;;14.90;58.10;;;;;;4956258;28;20048;-44
2021/04/16 00:20:31;;;;;;;0.52;0.50;;;14.90;58.00;;;;;;4956043;29;20035;-40
2021/04/16 00:22:57;;;;;;;0.82;0.50;;;14.90;58.00;;;;;;4956150;29;20157;-40
2021/04/16 00:25:26;;;;;;;0.80;0.55;;;14.90;58.00;;;;;;4956238;29;20016;-40
2021/04/16 00:27:52;;;;;;;1.08;0.50;;;15.30;58.10;;;;;;4956077;29;20036;-40
2021/04/16 00:30:24;;;;;;;0.90;0.40;;;14.80;58.00;;;;;;4955882;29;20466;-40
2021/04/16 00:32:50;;;;;;;1.23;0.88;;;14.90;57.90;;;;;;4956225;29;20082;-40
2021/04/16 00:35:16;;;;;;;0.80;0.63;;;14.90;57.80;;;;;;4955863;29;20084;-40
2021/04/16 00:37:42;;;;;;;1.08;0.75;;;14.80;57.70;;;;;;4956102;29;20054;-40
2021/04/16 00:40:14;;;;;;;0.95;0.43;;;14.80;57.70;;;;;;4956066;29;20023;-40
2021/04/16 00:42:40;;;;;;;1.20;0.50;;;14.90;57.70;;;;;;4956047;29;20027;-40
2021/04/16 00:45:07;;;;;;;1.38;0.40;;;14.70;57.60;;;;;;4956002;29;20114;-40
2021/04/16 00:47:33;;;;;;;1.75;0.60;;;14.90;57.70;;;;;;4955891;28;20050;-40
2021/04/16 00:50:11;;;;;;;0.77;0.47;;;14.70;57.60;;;;;;4955533;29;20478;-40
2021/04/16 00:52:37;;;;;;;0.73;0.40;;;14.80;57.60;;;;;;4955946;29;20065;-39
2021/04/16 00:55:04;;;;;;;0.65;0.45;;;14.70;57.50;;;;;;4955813;29;20459;-39
2021/04/16 00:57:30;;;;;;;0.90;0.50;;;14.80;57.50;;;;;;4955709;29;20055;-39
2021/04/16 00:59:57;;;;;;;0.57;0.50;;;14.70;57.50;;;;;;4955669;29;20086;-39
2021/04/16 01:02:24;;;;;;;1.00;0.50;;;14.70;57.40;;;;;;4955615;29;20063;-40
2021/04/16 01:04:51;;;;;;;0.60;0.60;;;14.60;57.20;;;;;;4955371;29;20489;-38
2021/04/16 01:07:18;;;;;;;0.73;0.60;;;14.70;57.30;;;;;;4955507;29;20030;-40
2021/04/16 01:09:46;;;;;;;1.25;0.40;;;14.60;57.20;;;;;;4955562;29;20474;-40
2021/04/16 01:12:13;;;;;;;0.73;0.40;;;14.70;57.20;;;;;;4955191;29;20502;-40
2021/04/16 01:14:41;;;;;;;1.58;0.40;;;14.70;57.20;;;;;;4955104;29;20047;-39
2021/04/16 01:17:09;;;;;;;0.50;0.45;;;14.60;57.20;;;;;;4955413;29;20027;-40
2021/04/16 01:19:40;;;;;;;0.80;0.40;;;14.60;57.20;;;;;;4955442;29;20031;-38
2021/04/16 01:22:08;;;;;;;;;;;14.60;57.10;;;;;;4955768;29;20039;-40
2021/04/16 01:24:34;;;;;;;0.45;0.45;;;14.70;57.10;;;;;;4955162;29;20329;-40
2021/04/16 01:27:03;;;;;;;0.40;0.40;;;14.60;57.00;;;;;;4955234;29;20047;-40
2021/04/16 01:29:28;;;;;;;0.50;0.40;;;14.30;56.80;;;;;;4954445;28;20030;-40
2021/04/16 01:31:54;;;;;;;0.52;0.32;;;14.60;57.00;;;;;;4954929;29;20031;-40
2021/04/16 01:34:28;;;;;;;1.15;0.63;;;14.60;56.90;;;;;;4954946;29;20051;-40
2021/04/16 01:36:57;;;;;;;0.90;0.63;;;14.50;56.90;;;;;;4955050;29;20027;-39
2021/04/16 01:39:24;;;;;;;0.63;0.38;;;14.60;56.90;;;;;;4954911;29;20019;-40
2021/04/16 01:41:50;;;;;;;0.47;0.45;;;14.50;56.80;;;;;;4954693;29;20491;-40
2021/04/16 01:44:18;;;;;;;0.73;0.50;;;14.60;56.80;;;;;;4954673;29;20055;-39
2021/04/16 01:46:48;;;;;;;1.02;0.55;;;14.50;56.80;;;;;;4954514;29;20070;-40
2021/04/16 01:49:14;;;;;;;0.68;0.47;;;14.50;56.80;;;;;;4954790;28;20031;-41
2021/04/16 01:51:40;;;;;;;0.55;0.40;;;14.50;56.70;;;;;;4954575;29;20437;-38
2021/04/16 01:54:22;;;;;;;0.50;0.47;;;14.50;56.70;;;;;;4954899;29;20031;-38
2021/04/16 01:56:52;;;;;;;1.27;0.30;;;14.60;56.60;;;;;;4954782;29;20059;-40
2021/04/16 01:59:21;;;;;;;0.70;0.50;;;14.30;56.50;;;;;;4954384;29;20019;-40
2021/04/16 02:01:47;;;;;;;0.50;0.40;;;14.50;56.60;;;;;;4954606;29;20283;-38
2021/04/16 02:04:14;;;;;;;0.75;0.35;;;14.40;56.60;;;;;;4954544;29;20135;-40
2021/04/16 02:06:41;;;;;;;0.38;0.38;;;14.40;56.60;;;;;;4954581;29;20067;-40
2021/04/16 02:09:11;;;;;;;1.15;0.40;;;14.70;56.70;;;;;;4954368;29;20394;-40
2021/04/16 02:11:39;;;;;;;1.65;0.50;;;14.40;56.50;;;;;;4954604;29;20147;-40
2021/04/16 02:14:06;;;;;;;0.57;0.47;;;14.40;56.50;;;;;;4954130;29;20441;-39
2021/04/16 02:16:33;;;;;;;0.68;0.40;;;14.80;56.70;;;;;;4954302;29;20443;-39
2021/04/16 02:18:58;;;;;;;0.68;0.45;;;14.50;56.50;;;;;;4954337;29;20358;-40
2021/04/16 02:21:24;;;;;;;0.40;0.40;;;14.50;56.50;;;;;;4954048;29;20034;-40
2021/04/16 02:23:49;;;;;;;1.00;0.50;;;14.40;56.40;;;;;;4954313;29;20031;-39
2021/04/16 02:26:15;;;;;;;1.10;0.60;;;14.30;56.30;;;;;;4954269;29;20022;-39
2021/04/16 02:28:41;;;;;;;0.30;0.30;;;14.30;56.30;;;;;;4954140;29;20542;-39
2021/04/16 02:31:06;;;;;;;0.98;0.60;;;14.30;56.30;;;;;;4936906;29;20049;-39
2021/04/16 02:33:32;;;;;;;0.20;0.20;;;14.30;56.30;;;;;;4936708;29;20027;-40
2021/04/16 02:35:58;;;;;;;0.88;0.45;;;14.30;56.30;;;;;;4954078;29;20039;-39
2021/04/16 02:38:23;;;;;;;0.40;0.40;;;14.30;56.30;;;;;;4954110;29;20665;-39
2021/04/16 02:40:49;;;;;;;0.40;0.30;;;14.40;56.30;;;;;;4953998;29;20035;-39
2021/04/16 02:43:14;;;;;;;0.45;0.40;;;14.30;56.20;;;;;;4954040;29;20020;-39
2021/04/16 02:45:40;;;;;;;0.50;0.40;;;15.10;56.60;;;;;;4954034;29;20019;-39
2021/04/16 02:48:06;;;;;;;0.38;0.30;;;14.30;56.20;;;;;;4953867;28;20038;-39
2021/04/16 02:50:32;;;;;;;0.57;0.30;;;14.40;56.20;;;;;;4953921;29;20082;-39
2021/04/16 02:52:58;;;;;;;0.50;0.40;;;14.40;56.20;;;;;;4953973;29;20019;-39
2021/04/16 02:55:24;;;;;;;0.47;0.40;;;14.30;56.20;;;;;;4953649;29;20039;-41
2021/04/16 02:57:50;;;;;;;0.85;0.30;;;14.30;56.10;;;;;;4953989;29;20036;-38
2021/04/16 03:00:21;;;;;;;0.45;0.38;;;14.20;56.00;;;;;;4953804;29;20027;-39
2021/04/16 03:02:46;;;;;;;0.32;0.30;;;14.30;56.00;;;;;;4953551;29;20042;-40
2021/04/16 03:05:13;;;;;;;0.90;0.35;;;14.20;56.00;;;;;;4953814;29;20023;-38
2021/04/16 03:07:39;;;;;;;0.82;0.50;;;14.30;56.00;;;;;;4953872;29;20114;-40
2021/04/16 03:10:06;;;;;;;0.57;0.30;;;14.10;55.90;;;;;;4953440;29;20132;-40
2021/04/16 03:12:32;;;;;;;0.40;0.30;;;14.30;56.00;;;;;;4953296;29;20066;-41
2021/04/16 03:14:57;;;;;;;0.35;0.30;;;14.10;55.90;;;;;;4953673;29;20460;-39
2021/04/16 03:17:23;;;;;;;0.30;0.20;;;14.10;55.90;;;;;;4953719;29;20046;-41
2021/04/16 03:19:49;;;;;;;0.85;0.30;;;14.10;55.90;;;;;;4953814;29;20039;-40
2021/04/16 03:22:15;;;;;;;0.50;0.50;;;14.20;55.90;;;;;;4953786;29;20442;-39
2021/04/16 03:24:41;;;;;;;0.35;0.30;;;14.20;55.90;;;;;;4953759;29;20054;-38
2021/04/16 03:27:07;;;;;;;0.22;0.20;;;14.20;55.90;;;;;;4953499;29;20538;-38
2021/04/16 03:29:32;;;;;;;1.02;0.30;;;14.20;55.80;;;;;;4953286;29;20406;-39
2021/04/16 03:31:58;;;;;;;0.73;0.40;;;14.10;55.80;;;;;;4953297;29;20038;-39
2021/04/16 03:34:23;;;;;;;0.70;0.30;;;14.10;55.80;;;;;;4936391;29;20126;-39
2021/04/16 03:36:49;;;;;;;1.30;0.50;;;14.10;55.80;;;;;;4953512;29;20034;-40
2021/04/16 03:39:15;;;;;;;1.27;0.50;;;14.70;56.00;;;;;;4953521;29;20019;-40
2021/04/16 03:41:41;;;;;;;1.08;0.30;;;14.10;55.70;;;;;;4953605;29;20443;-40
2021/04/16 03:44:07;;;;;;;0.30;0.30;;;14.10;55.80;;;;;;4953151;29;20505;-37
2021/04/16 03:46:33;;;;;;;0.43;0.38;;;14.10;55.70;;;;;;4953463;29;20055;-40
2021/04/16 03:48:58;;;;;;;1.00;0.40;;;14.50;55.90;;;;;;4953429;28;20026;-40
2021/04/16 03:51:24;;;;;;;0.73;0.20;;;14.00;55.70;;;;;;4953112;29;20494;-39
2021/04/16 03:53:50;;;;;;;0.40;0.40;;;14.10;55.70;;;;;;4955778;28;20046;-38
2021/04/16 03:56:17;;;;;;;0.40;0.40;;;14.10;55.80;;;;;;4956750;29;20114;-40
2021/04/16 03:58:44;;;;;;;0.55;0.40;;;14.10;55.70;;;;;;4956861;29;20155;-37
2021/04/16 04:01:10;;;;;;;0.73;0.40;;;14.00;55.70;;;;;;4956342;29;20102;-40
2021/04/16 04:03:36;;;;;;;1.10;0.40;;;14.00;55.60;;;;;;4956460;29;20036;-40
2021/04/16 04:06:02;;;;;;;0.77;0.40;;;14.00;55.60;;;;;;4956295;29;20027;-40
2021/04/16 04:08:27;;;;;;;1.05;0.30;;;14.10;55.60;;;;;;4956389;29;20480;-39
2021/04/16 04:10:53;;;;;;;0.30;0.30;;;14.00;55.70;;;;;;4939105;29;20070;-40
2021/04/16 04:13:18;;;;;;;0.50;0.35;;;13.90;55.60;;;;;;4956264;29;20043;-40
2021/04/16 04:15:44;;;;;;;0.93;0.55;;;13.90;55.70;;;;;;4956244;29;20509;-40
2021/04/16 04:18:10;;;;;;;0.65;0.30;;;14.70;56.00;;;;;;4956157;29;20367;-40
2021/04/16 04:20:38;;;;;;;0.50;0.50;;;14.00;55.60;;;;;;4956492;29;20116;-40
2021/04/16 04:23:05;;;;;;;0.40;0.40;;;14.00;55.20;;;;;;4956469;29;20034;-40
2021/04/16 04:25:32;;;;;;;1.08;0.30;;;13.90;55.60;;;;;;4956402;29;20038;-40
2021/04/16 04:27:59;;;;;;;0.55;0.30;;;13.90;55.60;;;;;;4956399;29;20027;-43
2021/04/16 04:30:31;;;;;;;0.50;0.40;;;13.90;55.60;;;;;;4955974;29;20462;-40
2021/04/16 04:32:56;;;;;;;0.40;0.40;;;13.90;55.60;;;;;;4956222;29;20433;-40
2021/04/16 04:35:23;;;;;;;1.00;0.45;;;13.90;55.60;;;;;;4956130;29;20118;-40
2021/04/16 04:37:48;;;;;;;0.85;0.30;;;13.90;55.60;;;;;;4955799;29;20051;-40
2021/04/16 04:40:17;;;;;;;0.40;0.40;;;13.90;55.60;;;;;;4956152;29;20039;-40
2021/04/16 04:42:43;;;;;;;0.70;0.50;;;14.00;55.70;;;;;;4956009;29;20038;-40
2021/04/16 04:45:09;;;;;;;0.30;0.30;;;13.80;55.50;;;;;;4955742;29;20086;-40
2021/04/16 04:47:34;;;;;;;0.40;0.40;;;14.00;55.80;;;;;;4955615;28;20039;-41
2021/04/16 04:50:00;;;;;;;0.40;0.40;;;13.80;55.70;;;;;;4955975;29;20110;-40
2021/04/16 04:52:32;;;;;;;0.40;0.40;;;13.80;55.70;;;;;;4955904;29;20375;-39
2021/04/16 04:55:00;;;;;;;1.58;0.45;;;14.00;55.70;;;;;;4955782;29;20031;-40
2021/04/16 04:57:27;;;;;;;0.30;0.30;;;13.90;55.90;;;;;;4955600;29;20015;-39
2021/04/16 04:59:53;;;;;;;0.47;0.47;;;13.80;55.90;;;;;;4955822;29;20034;-39
2021/04/16 05:02:21;;;;;;;1.15;0.50;;;13.90;55.90;;;;;;4955565;29;20034;-39
2021/04/16 05:04:47;;;;;;;1.50;0.50;;;13.80;55.90;;;;;;4954652;28;20355;-39
2021/04/16 05:07:13;;;;;;;0.38;0.35;;;13.90;56.10;;;;;;4955321;29;20033;-39
2021/04/16 05:09:38;;;;;;;1.05;0.60;;;13.90;56.50;;;;;;4955607;29;20023;-40
2021/04/16 05:12:04;;;;;;;1.27;0.40;;;13.90;57.00;;;;;;4955578;29;20410;-39
2021/04/16 05:14:30;;;;;;;0.80;0.30;;;14.20;57.10;;;;;;4954833;29;20039;-39
2021/04/16 05:16:56;;;;;;;0.70;0.43;;;14.20;56.80;;;;;;4955485;29;20374;-39
2021/04/16 05:19:22;;;;;;;0.57;0.40;;;14.40;56.80;;;;;;4955095;29;20510;-39
2021/04/16 05:21:50;;;;;;;1.35;0.50;;;14.50;56.80;;;;;;4955099;29;20063;-39
2021/04/16 05:24:15;;;;;;;0.50;0.30;;;14.40;56.80;;;;;;4955164;29;20078;-40
2021/04/16 05:26:41;;;;;;;1.40;0.57;;;14.60;56.90;;;;;;4955365;29;20219;-39
2021/04/16 05:29:07;;;;;;;0.88;0.43;;;14.60;56.70;;;;;;4955126;29;20086;-39
2021/04/16 05:31:33;;;;;;;0.60;0.57;;;14.60;56.70;;;;;;4955174;29;20083;-44
2021/04/16 05:33:59;;;;;;;1.75;0.40;;;14.70;56.60;;;;;;4954975;29;20032;-39
2021/04/16 05:36:25;;;;;;;1.15;0.35;;;14.60;56.50;;;;;;4954979;29;20126;-40
2021/04/16 05:38:51;;;;;;;0.70;0.40;;;14.70;56.50;;;;;;4955089;29;20023;-39
2021/04/16 05:41:17;;;;;;;0.88;0.40;;;14.90;56.60;;;;;;4954786;29;20751;-39
2021/04/16 05:43:42;;;;;;;1.30;0.60;;;14.70;56.30;;;;;;4954657;29;20103;-38
2021/04/16 05:46:08;;;;;;;2.05;0.50;;;14.60;55.80;;;;;;4954865;29;20055;-40
2021/04/16 05:48:34;;;;;;;2.00;0.60;;;15.30;56.40;;;;;;4954613;28;20102;-40
2021/04/16 05:50:59;;;;;;;2.58;0.60;;;14.60;56.00;;;;;;4954656;29;20039;-38
2021/04/16 05:53:25;;;;;;;0.80;0.70;;;14.70;56.00;;;;;;4954982;29;20378;-40
2021/04/16 05:55:51;;;;;;;2.78;0.60;;;14.70;56.10;;;;;;4954692;29;20164;-40
2021/04/16 05:58:17;;;;;;;6.47;0.55;;;14.70;55.80;;;;;;4954696;29;20075;-40
2021/04/16 06:00:42;;;;;;;0.70;0.60;;;14.70;56.10;;;;;;4954809;29;20410;-38
2021/04/16 06:03:09;;;;;;;0.80;0.60;;;14.60;56.20;;;;;;4954367;29;20030;-39
2021/04/16 06:05:35;;;;;;;1.60;0.60;;;14.60;56.20;;;;;;4954766;29;20121;-40
2021/04/16 06:08:01;;;;;;;2.92;0.70;;;14.50;56.30;;;;;;4954642;29;20514;-40
2021/04/16 06:10:27;;;;;;;2.03;0.88;;;14.60;56.40;;;;;;4954217;29;20038;-39
2021/04/16 06:12:53;;;;;;;3.20;0.60;;;14.50;56.40;;;;;;4954245;28;20039;-40
2021/04/16 06:15:23;;;;;;;2.25;0.70;;;14.60;56.60;;;;;;4953731;28;20526;-39
2021/04/16 06:17:49;;;;;;;1.40;0.77;;;14.60;56.60;;;;;;4954677;29;20083;-43
2021/04/16 06:20:18;;;;;;;1.08;0.43;;;14.60;56.90;;;;;;4954447;29;20098;-38
2021/04/16 06:22:46;;;;;;;1.15;0.63;;;14.70;57.30;;;;;;4954316;29;20063;-39
2021/04/16 06:25:13;;;;;;;2.15;0.95;;;14.50;56.70;;;;;;4954209;29;20482;-39
2021/04/16 06:27:39;;;;;;;4.57;1.05;;;14.70;56.90;;;;;;4954108;29;20439;-40
2021/04/16 06:30:07;;;;;;;3.95;0.80;;;15.30;57.20;;;;;;4954063;29;20019;-40
2021/04/16 06:32:32;;;;;;;1.58;0.73;;;14.70;56.90;;;;;;4954232;29;20038;-39
2021/04/16 06:34:58;;;;;;;1.08;0.60;;;14.60;56.70;;;;;;4954044;29;20550;-40
2021/04/16 06:37:23;;;;;;;2.22;0.75;;;14.60;56.60;;;;;;4954223;29;20023;-40
2021/04/16 06:39:49;;;;;;;1.70;0.80;;;14.60;56.80;;;;;;4954207;29;20110;-40
2021/04/16 06:42:23;;;;;;;2.42;0.70;;;14.70;56.50;;;;;;4953853;29;20087;-39
2021/04/16 06:44:54;;;;;;;1.38;0.60;;;14.70;56.50;;;;;;4953946;29;20035;-40
2021/04/16 06:47:26;;;;;;;5.40;0.90;;;14.70;56.50;;;;;;4954046;28;20034;-40
2021/04/16 06:49:58;;;;;;;1.15;0.60;;;14.70;56.40;;;;;;4954128;29;20032;-39
2021/04/16 06:52:33;;;;;;;1.27;0.70;;;14.80;56.50;;;;;;4954035;29;20027;-38
2021/04/16 06:55:15;;;;;;;1.02;0.45;;;14.80;56.40;;;;;;4953762;29;20536;-38
2021/04/16 06:57:43;;;;;;;2.75;0.60;;;14.90;56.70;;;;;;4954011;29;20050;-38
2021/04/16 07:00:31;;;;;;;1.33;0.60;;;14.80;56.60;;;;;;4954111;29;20027;-38
2021/04/16 07:03:35;;;;;;;1.02;0.50;;;14.90;56.60;;;;;;4953773;29;20118;-39
2021/04/16 07:06:12;;;;;;;1.02;0.47;;;14.90;56.40;;;;;;4945177;29;20039;-38
2021/04/16 07:08:45;;;;;;;0.90;0.32;;;14.90;56.50;;;;;;4953599;29;20027;-38
2021/04/16 07:11:22;;;;;;;1.60;0.40;;;15.30;56.60;;;;;;4953918;29;20122;-38
2021/04/16 07:13:49;;;;;;;2.20;0.55;;;14.90;56.40;;;;;;4953540;29;20095;-38
2021/04/16 07:16:16;;;;;;;1.88;0.47;;;14.80;56.50;;;;;;4953708;29;20486;-39
2021/04/16 07:18:44;;;;;;;0.57;0.40;;;15.00;56.60;;;;;;4953811;29;20027;-39
2021/04/16 07:21:15;;;;;;;1.63;0.60;;;14.90;56.50;;;;;;4953763;29;20038;-39
2021/04/16 07:23:46;;;;;;;1.00;0.30;;;14.90;56.40;;;;;;4953818;29;20015;-40
2021/04/16 07:26:34;;;;;;;1.58;0.70;;;14.90;56.40;;;;;;4953739;29;20065;-39
2021/04/16 07:29:01;;;;;;;0.68;0.43;;;14.90;56.30;;;;;;4956291;29;20027;-39
2021/04/16 07:31:32;;;;;;;0.60;0.50;;;15.00;56.40;;;;;;4957123;29;20086;-39
2021/04/16 07:33:59;;;;;;;1.48;0.50;;;14.90;56.30;;;;;;4957106;29;20510;-38
2021/04/16 07:36:36;;;;;;;0.90;0.40;;;14.90;56.20;;;;;;4957336;29;20386;-39
2021/04/16 07:39:13;;;;;;;1.50;0.52;;;14.90;56.20;;;;;;4957287;29;20059;-39
2021/04/16 07:41:42;;;;;;;1.48;0.60;;;15.10;56.10;;;;;;4957020;29;20027;-39
2021/04/16 07:44:37;;;;;;;3.77;0.87;;;15.00;56.10;;;;;;4957204;29;20031;-39
2021/04/16 07:47:13;;;;;;;1.10;0.73;;;15.20;55.90;;;;;;4956797;28;20479;-39
2021/04/16 07:49:54;;;;;;;0.90;0.55;;;15.10;56.00;;;;;;4957188;29;20102;-39
2021/04/16 07:52:38;;;;;;;0.98;0.60;;;15.10;55.90;;;;;;4957077;29;20035;-39
2021/04/16 07:55:25;;;;;;;1.67;0.43;;;15.30;55.90;;;;;;4956954;29;20035;-40
2021/04/16 07:57:50;;;;;;;4.32;0.80;;;15.30;55.80;;;;;;4956664;29;20037;-39
2021/04/16 08:00:22;;;;;;;2.25;0.80;;;15.20;55.60;;;;;;4956916;29;20383;-39
2021/04/16 08:02:51;;;;;;;1.70;1.17;;;15.20;55.40;;;;;;4956800;29;20394;-39
2021/04/16 08:05:26;;;;;;;0.65;0.45;;;15.30;55.40;;;;;;4956530;29;20106;-39
2021/04/16 08:08:17;;;;;;;2.10;0.93;;;15.20;55.50;;;;;;4956759;29;20031;-39
2021/04/16 08:10:45;;;;;;;2.28;1.00;;;15.40;55.30;;;;;;4956407;29;20509;-39
2021/04/16 08:13:17;;;;;;;1.45;0.73;;;15.30;55.20;;;;;;4956204;29;20164;-38
2021/04/16 08:15:42;;;;;;;2.38;1.00;;;15.40;55.10;;;;;;4956150;29;20035;-38
2021/04/16 08:18:25;;;;;;;1.27;0.90;;;15.40;54.90;;;;;;4956153;29;20562;-38
2021/04/16 08:21:18;;;;;;;4.57;0.90;;;15.40;54.90;;;;;;4956427;29;20030;-39
2021/04/16 08:24:15;;;;;;;1.75;0.77;;;15.60;54.90;;;;;;4956310;29;20379;-38
2021/04/16 08:26:45;;;;;;;1.88;1.10;;;15.60;54.90;;;;;;4956456;29;20099;-38
2021/04/16 08:29:11;;;;;;;;;;;15.50;54.90;;;;;;4939150;29;20022;-38
2021/04/16 08:31:43;;;;;;;1.42;0.80;;;15.50;54.90;;;;;;4956212;29;19906;-38
2021/04/16 08:34:13;;;;;;;1.15;0.95;;;15.60;54.80;;;;;;4956047;29;20098;-39
2021/04/16 08:36:42;;;;;;;2.83;0.70;;;15.60;54.70;;;;;;4955829;29;20521;-39
2021/04/16 08:39:30;;;;;;;0.88;0.77;;;15.70;54.70;;;;;;4955770;28;20430;-39
2021/04/16 08:42:01;;;;;;;1.27;0.60;;;15.80;54.40;;;;;;4955880;29;20069;-38
2021/04/16 08:44:31;;;;;;;3.15;1.02;;;15.80;54.50;;;;;;4956156;29;20059;-39
2021/04/16 08:46:58;;;;;;;1.70;1.00;;;15.70;54.40;;;;;;4955794;28;20106;-39
2021/04/16 08:49:29;;;;;;;0.95;0.68;;;15.70;54.20;;;;;;4955869;29;20055;-39
2021/04/16 08:52:00;;;;;;;0.90;0.70;;;15.80;54.20;;;;;;4955583;29;20131;-38
2021/04/16 08:54:30;;;;;;;2.55;0.90;;;16.10;54.40;;;;;;4955903;29;20383;-38
2021/04/16 08:57:05;;;;;;;0.88;0.70;;;16.00;54.20;;;;;;4955776;29;20062;-38
2021/04/16 08:59:45;;;;;;;1.70;0.82;;;15.90;54.10;;;;;;4955725;29;20111;-39
2021/04/16 09:02:41;;;;;;;1.40;0.85;;;16.00;53.70;;;;;;4955647;29;20079;-39
2021/04/16 09:05:12;;;;;;;1.60;0.93;;;16.20;53.70;;;;;;4955454;29;20035;-39
2021/04/16 09:07:42;;;;;;;1.00;0.80;;;16.10;53.50;;;;;;4955414;29;20031;-38
2021/04/16 09:10:30;;;;;;;1.23;0.80;;;16.40;53.70;;;;;;4955192;29;20035;-37
2021/04/16 09:12:58;;;;;;;0.98;0.88;;;16.30;53.60;;;;;;4954909;29;20063;-38
2021/04/16 09:15:33;;;;;;;2.22;0.80;;;16.10;53.40;;;;;;4955379;29;20035;-38
2021/04/16 09:17:59;;;;;;;1.02;0.80;;;16.30;53.20;;;;;;4955203;29;20030;-39
2021/04/16 09:20:47;;;;;;;1.95;0.60;;;16.20;53.20;;;;;;4955629;29;20031;-39
2021/04/16 09:23:39;;;;;;;1.33;0.93;;;16.30;53.10;;;;;;4954942;29;20027;-39
2021/04/16 09:26:07;;;;;;;0.80;0.63;;;16.20;52.80;;;;;;4939491;29;20027;-39
2021/04/16 09:28:43;;;;;;;0.80;0.80;;;16.30;52.80;;;;;;4955300;29;20042;-40
2021/04/16 09:31:24;;;;;;;1.92;0.93;;;16.30;52.70;;;;;;4955204;29;20046;-39
2021/04/16 09:34:07;;;;;;;1.45;0.80;;;16.20;53.10;;;;;;4937663;29;20027;-39
2021/04/16 09:36:38;;;;;;;1.10;0.88;;;16.20;53.00;;;;;;4955168;29;20462;-40
2021/04/16 09:39:15;;;;;;;1.80;0.60;;;16.30;53.00;;;;;;4955044;29;20110;-38
2021/04/16 09:41:46;;;;;;;1.75;0.77;;;16.50;53.10;;;;;;4955210;29;20390;-39
2021/04/16 09:44:36;;;;;;;1.55;0.85;;;16.60;78.50;;;;;;4955076;29;20027;-39
2021/04/16 09:47:05;;;;;;;1.35;0.80;;;16.30;52.70;;;;;;4954665;28;20078;-39
2021/04/16 09:49:35;;;;;;;1.33;0.85;;;16.50;52.80;;;;;;4954811;29;20020;-40
2021/04/16 09:52:26;;;;;;;1.10;0.70;;;16.40;52.70;;;;;;4954100;28;20031;-40
2021/04/16 09:54:52;;;;;;;1.52;0.90;;;16.50;52.60;;;;;;4936956;29;20042;-40
2021/04/16 09:57:20;;;;;;;0.88;0.70;;;16.40;53.30;;;;;;4954309;29;20030;-40
2021/04/16 09:59:47;;;;;;;1.77;0.90;;;16.50;52.60;;;;;;4954220;29;20019;-39
2021/04/16 10:02:12;;;;;;;1.48;0.73;;;16.30;52.50;;;;;;4954718;29;20054;-39
2021/04/16 10:05:10;;;;;;;0.63;0.50;;;16.40;52.60;;;;;;4954396;29;20091;-39
2021/04/16 10:07:54;;;;;;;0.90;0.60;;;16.50;52.60;;;;;;4946328;29;20043;-39
2021/04/16 10:10:36;;;;;;;1.27;0.70;;;17.10;52.70;;;;;;4954519;29;20382;-39
2021/04/16 10:13:19;;;;;;;1.15;0.60;;;16.60;52.20;;;;;;4954283;29;20055;-39
2021/04/16 10:15:47;;;;;;;1.42;0.73;;;16.60;52.10;;;;;;4954259;29;20039;-40
2021/04/16 10:18:15;;;;;;;0.90;0.70;;;16.50;52.10;;;;;;4954022;29;20023;-39
2021/04/16 10:20:55;;;;;;;2.35;0.82;;;16.50;52.00;;;;;;4954331;29;20416;-39
2021/04/16 10:23:38;;;;;;;1.30;0.80;;;16.70;52.10;;;;;;4954521;29;20059;-39
2021/04/16 10:27:30;;;;;;;0.63;0.45;;;16.70;51.80;;;;;;4953893;29;20041;-39
2021/04/16 12:39:34;;;;;;;0.80;0.47;;;18.10;50.50;;;;;;4956063;29;20573;-39
2021/04/16 12:42:02;;;;;;;0.55;0.30;;;18.00;50.70;;;;;;4955835;29;20110;-39
2021/04/16 12:44:36;;;;;;;1.08;0.47;;;18.00;50.60;;;;;;4955921;29;20431;-39
2021/04/16 12:47:11;;;;;;;1.42;0.45;;;18.00;51.10;;;;;;4956020;28;20035;-39
2021/04/16 12:49:37;;;;;;;1.20;0.35;;;18.20;50.90;;;;;;4956035;29;20023;-39
2021/04/16 12:52:05;;;;;;;4.32;0.68;;;18.40;51.30;;;;;;4955979;29;20360;-39
2021/04/16 12:54:38;;;;;;;2.55;0.40;;;18.20;51.00;;;;;;4955931;29;20109;-39
2021/04/16 12:57:05;;;;;;;0.93;0.40;;;18.00;50.90;;;;;;4955986;29;20131;-39
2021/04/16 12:59:31;;;;;;;1.95;0.45;;;18.20;51.40;;;;;;4955933;29;20075;-39
2021/04/16 13:01:58;;;;;;;7.50;0.57;;;18.10;51.10;;;;;;4955568;29;20023;-40
2021/04/16 13:04:25;;;;;;;2.50;0.50;;;18.10;50.70;;;;;;4955432;29;20086;-39
2021/04/16 13:06:55;;;;;;;0.30;0.30;;;18.10;51.00;;;;;;4955244;29;20027;-39
2021/04/16 13:09:21;;;;;;;2.97;0.60;;;18.00;50.80;;;;;;4938198;29;20063;-39
2021/04/16 13:11:50;;;;;;;0.40;0.20;;;18.10;49.80;;;;;;4955250;29;20035;-40
2021/04/16 13:14:17;;;;;;;1.08;0.43;;;18.00;49.60;;;;;;4955143;29;20449;-39
2021/04/16 13:16:43;;;;;;;0.20;0.20;;;18.20;49.40;;;;;;4955414;29;20035;-39
2021/04/16 13:19:23;;;;;;;0.70;0.43;;;18.00;49.20;;;;;;4955135;29;20529;-39
2021/04/16 13:21:52;;;;;;;1.10;0.47;;;18.10;49.20;;;;;;4955226;29;20062;-39
2021/04/16 13:24:18;;;;;;;1.83;0.30;;;18.10;48.80;;;;;;4954818;29;20110;-39
2021/04/16 13:26:43;;;;;;;0.43;0.35;;;18.00;49.00;;;;;;4954137;28;20152;-39
2021/04/16 13:29:09;;;;;;;0.55;0.32;;;18.00;49.00;;;;;;4955280;29;20494;-39
2021/04/16 13:31:36;;;;;;;1.58;0.43;;;17.90;48.80;;;;;;4955204;29;20474;-40
2021/04/16 13:34:02;;;;;;;1.77;0.50;;;17.90;49.00;;;;;;4954718;29;20035;-40
2021/04/16 13:36:30;;;;;;;1.13;0.43;;;17.60;48.80;;;;;;4954777;29;20081;-39
2021/04/16 13:38:57;;;;;;;2.15;0.35;;;17.80;49.00;;;;;;4954678;29;20534;-39
2021/04/16 13:41:23;;;;;;;2.15;0.45;;;17.80;49.00;;;;;;4955016;29;20031;-39
2021/04/16 13:43:53;;;;;;;1.67;0.40;;;17.80;49.30;;;;;;4954789;29;20094;-39
2021/04/16 13:46:24;;;;;;;0.90;0.50;;;17.70;49.20;;;;;;4937361;29;20482;-39
2021/04/16 13:48:50;;;;;;;0.57;0.32;;;17.60;49.30;;;;;;4954614;29;20023;-39
2021/04/16 13:51:18;;;;;;;0.73;0.40;;;17.40;49.10;;;;;;4954589;29;20050;-39
2021/04/16 13:53:44;;;;;;;1.45;0.40;;;17.40;49.20;;;;;;4954495;29;20024;-40
2021/04/16 13:56:10;;;;;;;0.90;0.38;;;17.80;49.70;;;;;;4954766;29;20032;-40
2021/04/16 13:58:36;;;;;;;1.08;0.45;;;17.50;49.60;;;;;;4954815;29;20027;-40
2021/04/16 14:01:04;;;;;;;1.42;0.30;;;17.30;49.30;;;;;;4954690;29;20031;-40
2021/04/16 14:03:34;;;;;;;0.73;0.40;;;17.30;49.40;;;;;;4954779;29;20572;-40
2021/04/16 14:06:02;;;;;;;;;;;17.50;49.60;;;;;;4954906;29;20031;-40
2021/04/16 14:08:34;;;;;;;0.75;0.30;;;17.00;49.30;;;;;;4954536;29;19906;-39
2021/04/16 14:11:01;;;;;;;1.85;0.43;;;17.30;49.40;;;;;;4954112;29;20471;-39
2021/04/16 14:13:29;;;;;;;0.75;0.43;;;17.20;50.00;;;;;;4954128;29;20098;-45
2021/04/16 14:16:03;;;;;;;0.52;0.50;;;17.10;49.60;;;;;;4954368;29;20086;-40
2021/04/16 14:18:36;;;;;;;0.90;0.30;;;17.10;49.60;;;;;;4954001;29;20091;-40
2021/04/16 14:21:04;;;;;;;0.60;0.25;;;17.20;49.70;;;;;;4954124;29;20058;-40
2021/04/16 14:23:30;;;;;;;0.40;0.30;;;17.00;49.70;;;;;;4954355;29;20062;-40
2021/04/16 14:25:56;;;;;;;1.02;0.50;;;17.00;49.90;;;;;;4953909;29;20035;-40
2021/04/16 14:28:23;;;;;;;1.13;0.43;;;16.90;49.70;;;;;;4954314;29;20031;-40
2021/04/16 14:30:50;;;;;;;0.50;0.40;;;17.00;49.60;;;;;;4954268;29;20031;-41
2021/04/16 14:33:21;;;;;;;0.43;0.30;;;17.10;49.20;;;;;;4954254;29;20075;-40
2021/04/16 14:35:46;;;;;;;1.63;0.32;;;17.00;49.70;;;;;;4954197;29;20031;-40
2021/04/16 14:38:12;;;;;;;0.85;0.40;;;17.10;49.80;;;;;;4953777;29;20042;-44
2021/04/16 14:40:38;;;;;;;0.60;0.50;;;17.00;49.50;;;;;;4953789;29;20042;-40
2021/04/16 14:43:06;;;;;;;0.57;0.30;;;16.90;49.60;;;;;;4954163;29;20031;-40
2021/04/16 14:45:34;;;;;;;0.40;0.35;;;17.10;49.60;;;;;;4953574;28;20259;-40
2021/04/16 14:48:01;;;;;;;0.80;0.40;;;16.90;49.70;;;;;;4953691;29;20019;-38
2021/04/16 14:50:28;;;;;;;0.30;0.30;;;17.00;49.80;;;;;;4954047;29;20031;-38
2021/04/16 14:52:56;;;;;;;1.02;0.70;;;16.90;49.60;;;;;;4953881;29;20027;-40
2021/04/16 14:55:26;;;;;;;2.40;0.50;;;16.80;50.00;;;;;;4953764;29;20090;-39
2021/04/16 14:57:52;;;;;;;;;;;16.80;49.80;;;;;;4954179;29;20486;-40
2021/04/16 15:00:20;;;;;;;0.73;0.30;;;17.00;50.00;;;;;;4953769;29;19962;-39
2021/04/16 15:02:46;;;;;;;0.47;0.30;;;17.00;49.90;;;;;;4953716;29;20024;-38
2021/04/16 15:05:13;;;;;;;0.55;0.45;;;16.80;49.90;;;;;;4953760;29;20027;-40
2021/04/16 15:07:42;;;;;;;0.20;0.20;;;17.00;49.90;;;;;;4953951;29;20031;-40
2021/04/16 15:10:12;;;;;;;0.57;0.30;;;16.70;49.70;;;;;;4953729;29;20075;-40